Time;durP1;ratioP1;P1;durP2;ratioP2;P2;SDS_P1;SDS_P2;PMS_P1;PMS_P2;Temp;Humidity;BMP_temperature;BMP_pressure;BME280_temperature;BME280_humidity;BME280_pressure;Samples;Min_cycle;Max_cycle;Signal;HPM_P1;HPM_P2
2021/12/03 00:00:30;;;;;;;3.95;2.67;;;17.70;43.10;;;;;;5049993;28;45333;-80
2021/12/03 00:02:58;;;;;;;3.67;2.58;;;17.70;43.10;;;;;;5056147;28;44617;-79
2021/12/03 00:05:25;;;;;;;3.85;2.78;;;17.70;42.90;;;;;;5056159;28;44613;-79
2021/12/03 00:07:52;;;;;;;3.67;2.90;;;17.70;43.00;;;;;;5050897;28;44672;-80
2021/12/03 00:10:22;;;;;;;4.32;2.80;;;17.60;42.90;;;;;;5056283;28;45603;-80
2021/12/03 00:12:49;;;;;;;3.65;2.40;;;17.70;43.10;;;;;;5056408;28;45240;-80
2021/12/03 00:15:16;;;;;;;3.42;2.20;;;17.70;43.30;;;;;;5056696;28;44605;-80
2021/12/03 00:17:43;;;;;;;3.50;2.25;;;17.70;43.50;;;;;;5055946;28;44787;-80
2021/12/03 00:20:14;;;;;;;3.45;2.55;;;17.70;44.70;;;;;;5056233;28;45290;-81
2021/12/03 00:22:42;;;;;;;3.05;2.30;;;17.70;43.60;;;;;;5056499;28;44616;-80
2021/12/03 00:25:10;;;;;;;3.20;2.53;;;17.70;43.80;;;;;;5056205;28;44705;-80
2021/12/03 00:27:37;;;;;;;5.07;2.67;;;17.70;43.60;;;;;;5053184;28;45149;-80
2021/12/03 00:30:05;;;;;;;3.45;2.40;;;17.70;43.80;;;;;;5055089;28;46434;-80
2021/12/03 00:32:32;;;;;;;3.67;2.03;;;17.70;43.80;;;;;;5056089;28;44764;-80
2021/12/03 00:34:59;;;;;;;4.18;2.80;;;17.70;43.90;;;;;;5056430;28;44735;-80
2021/12/03 00:37:28;;;;;;;4.68;2.70;;;17.70;43.80;;;;;;5056090;28;44812;-80
2021/12/03 00:39:55;;;;;;;3.90;2.65;;;17.70;43.80;;;;;;5055707;28;45116;-80
2021/12/03 00:42:22;;;;;;;3.50;2.42;;;17.60;43.40;;;;;;5050391;28;44589;-80
2021/12/03 00:44:52;;;;;;;4.82;2.95;;;17.60;43.30;;;;;;5055659;28;44633;-81
2021/12/03 00:47:19;;;;;;;6.47;2.97;;;17.60;43.10;;;;;;5044428;28;44911;-80
2021/12/03 00:49:46;;;;;;;4.00;2.60;;;17.70;43.10;;;;;;5054897;28;46614;-80
2021/12/03 00:52:13;;;;;;;4.93;2.90;;;17.60;43.10;;;;;;5049828;28;44659;-80
2021/12/03 00:54:42;;;;;;;5.32;2.80;;;17.60;43.10;;;;;;5050530;28;44735;-80
2021/12/03 00:57:09;;;;;;;3.83;2.90;;;17.60;42.90;;;;;;5053317;28;45498;-80
2021/12/03 00:59:36;;;;;;;4.05;2.85;;;17.60;42.90;;;;;;5051332;28;46595;-80
2021/12/03 01:02:03;;;;;;;4.25;3.15;;;17.60;42.90;;;;;;5055296;28;44907;-80
2021/12/03 01:04:30;;;;;;;5.18;3.05;;;17.60;43.00;;;;;;5051699;28;44704;-80
2021/12/03 01:06:57;;;;;;;4.75;3.35;;;17.60;42.90;;;;;;5055498;28;44710;-80
2021/12/03 01:09:24;;;;;;;3.78;3.10;;;17.60;42.90;;;;;;5055458;28;46614;-80
2021/12/03 01:11:52;;;;;;;4.20;2.80;;;17.60;43.00;;;;;;5054084;28;45122;-80
2021/12/03 01:14:20;;;;;;;5.88;3.03;;;17.60;43.30;;;;;;5050961;28;44727;-80
2021/12/03 01:16:48;;;;;;;4.93;2.90;;;17.60;43.30;;;;;;5050972;28;44907;-80
2021/12/03 01:19:15;;;;;;;4.13;2.80;;;17.60;43.50;;;;;;5051700;28;45261;-80
2021/12/03 01:21:42;;;;;;;5.30;2.97;;;17.60;43.40;;;;;;5051998;28;44710;-80
2021/12/03 01:24:10;;;;;;;5.72;2.92;;;17.70;43.40;;;;;;5052841;28;44925;-80
2021/12/03 01:26:39;;;;;;;4.78;2.78;;;17.60;43.70;;;;;;5050416;28;45216;-79
2021/12/03 01:29:08;;;;;;;5.85;3.00;;;17.60;43.70;;;;;;5034554;28;45858;-80
2021/12/03 01:31:34;;;;;;;3.80;2.83;;;17.60;43.60;;;;;;5050143;28;44716;-80
2021/12/03 01:34:02;;;;;;;7.45;3.22;;;17.70;43.60;;;;;;5047977;28;44626;-80
2021/12/03 01:36:29;;;;;;;4.55;2.67;;;17.60;43.30;;;;;;5052617;28;44672;-79
2021/12/03 01:38:56;;;;;;;6.40;3.22;;;17.60;43.30;;;;;;5052000;28;45031;-79
2021/12/03 01:41:23;;;;;;;6.43;3.58;;;17.60;43.30;;;;;;5052386;28;44666;-79
2021/12/03 01:43:51;;;;;;;4.43;3.33;;;17.60;43.20;;;;;;5052831;28;44651;-79
2021/12/03 01:46:20;;;;;;;4.95;3.30;;;17.60;43.30;;;;;;5047399;28;44801;-80
2021/12/03 01:48:47;;;;;;;4.25;2.90;;;17.60;43.30;;;;;;5050682;28;45212;-79
2021/12/03 01:51:14;;;;;;;5.65;3.28;;;17.60;43.20;;;;;;5042505;28;44625;-80
2021/12/03 01:53:41;;;;;;;5.25;2.90;;;17.60;43.10;;;;;;5052675;28;44615;-78
2021/12/03 01:56:11;;;;;;;4.78;3.10;;;17.60;43.70;;;;;;5051588;28;44922;-78
2021/12/03 01:58:38;;;;;;;3.58;2.67;;;17.60;45.00;;;;;;5051279;28;45236;-77
2021/12/03 02:01:09;;;;;;;6.65;3.20;;;17.60;44.70;;;;;;5051628;28;45033;-77
2021/12/03 02:03:40;;;;;;;4.45;2.90;;;17.60;44.10;;;;;;5051566;28;44668;-77
2021/12/03 02:06:09;;;;;;;4.95;3.45;;;17.60;44.00;;;;;;5039434;28;44871;-78
2021/12/03 02:08:37;;;;;;;4.53;3.00;;;17.60;44.20;;;;;;5051640;28;45367;-78
2021/12/03 02:11:06;;;;;;;4.03;2.70;;;17.60;44.10;;;;;;5050301;28;44906;-78
2021/12/03 02:13:33;;;;;;;2.92;2.50;;;17.60;44.40;;;;;;5041611;28;44756;-78
2021/12/03 02:16:00;;;;;;;5.30;2.83;;;17.60;44.20;;;;;;5051972;28;44807;-78
2021/12/03 02:18:27;;;;;;;5.03;3.00;;;17.60;44.10;;;;;;5043427;28;46671;-78
2021/12/03 02:20:58;;;;;;;5.22;2.83;;;17.60;44.20;;;;;;5050700;28;44676;-78
2021/12/03 02:23:27;;;;;;;6.53;3.38;;;17.60;44.30;;;;;;5051446;28;45051;-78
2021/12/03 02:25:55;;;;;;;5.82;2.63;;;17.60;44.50;;;;;;5051506;28;44762;-78
2021/12/03 02:28:25;;;;;;;5.78;2.90;;;17.60;44.20;;;;;;5050917;28;45406;-78
2021/12/03 02:30:52;;;;;;;4.53;2.75;;;17.60;44.50;;;;;;5051306;28;44582;-78
2021/12/03 02:33:20;;;;;;;4.53;3.00;;;17.60;44.50;;;;;;5051440;28;44677;-78
2021/12/03 02:35:47;;;;;;;5.88;2.58;;;17.60;44.40;;;;;;5051324;28;44819;-78
2021/12/03 02:38:17;;;;;;;6.15;2.85;;;17.60;44.40;;;;;;5051103;28;45210;-78
2021/12/03 02:40:45;;;;;;;4.50;2.60;;;17.60;44.20;;;;;;5034061;28;44688;-79
2021/12/03 02:43:12;;;;;;;4.85;2.40;;;17.60;44.40;;;;;;5031816;28;44895;-79
2021/12/03 02:45:39;;;;;;;4.63;2.85;;;17.60;44.50;;;;;;5045379;28;44877;-79
2021/12/03 02:48:06;;;;;;;4.15;2.65;;;17.60;44.50;;;;;;5049261;28;46675;-79
2021/12/03 02:50:34;;;;;;;4.68;2.85;;;17.60;44.40;;;;;;5050234;28;44637;-79
2021/12/03 02:53:01;;;;;;;4.85;2.88;;;17.60;44.10;;;;;;5050399;28;44819;-79
2021/12/03 02:55:30;;;;;;;5.40;2.75;;;17.60;44.10;;;;;;5045057;28;44878;-80
2021/12/03 02:57:57;;;;;;;5.32;3.03;;;17.60;44.20;;;;;;5050761;28;47375;-80
2021/12/03 03:00:26;;;;;;;4.25;2.70;;;17.60;44.00;;;;;;5050345;28;44559;-81
2021/12/03 03:02:54;;;;;;;5.18;2.72;;;17.60;44.10;;;;;;5050296;28;45186;-80
2021/12/03 03:05:23;;;;;;;4.85;2.72;;;17.60;44.20;;;;;;5049975;28;44743;-80
2021/12/03 03:07:50;;;;;;;4.25;2.60;;;17.60;44.10;;;;;;5050212;28;46600;-80
2021/12/03 03:10:22;;;;;;;5.07;2.80;;;17.60;44.00;;;;;;5049396;28;45255;-80
2021/12/03 03:12:50;;;;;;;7.07;3.13;;;17.60;44.00;;;;;;5047299;28;44657;-80
2021/12/03 03:15:18;;;;;;;4.05;2.65;;;17.60;44.10;;;;;;5047626;28;44818;-80
2021/12/03 03:17:46;;;;;;;6.43;2.65;;;17.60;44.00;;;;;;5044919;28;45580;-81
2021/12/03 03:20:13;;;;;;;4.93;2.90;;;17.60;44.20;;;;;;5039697;28;44652;-81
2021/12/03 03:22:42;;;;;;;7.25;3.03;;;17.60;44.10;;;;;;5046271;28;45042;-80
2021/12/03 03:25:12;;;;;;;5.47;2.33;;;17.60;44.20;;;;;;5049926;28;44870;-80
2021/12/03 03:27:39;;;;;;;4.45;2.83;;;17.60;44.80;;;;;;5050414;28;45286;-80
2021/12/03 03:30:12;;;;;;;4.30;2.47;;;17.60;44.90;;;;;;5049532;28;44657;-80
2021/12/03 03:32:39;;;;;;;5.32;2.60;;;17.70;44.90;;;;;;5050289;28;44805;-80
2021/12/03 03:35:06;;;;;;;7.82;2.40;;;17.70;44.90;;;;;;5050262;28;44708;-80
2021/12/03 03:37:33;;;;;;;6.60;2.40;;;17.70;45.00;;;;;;5048622;28;46562;-80
2021/12/03 03:40:00;;;;;;;5.25;2.30;;;17.70;44.90;;;;;;5049833;28;44609;-80
2021/12/03 03:42:27;;;;;;;4.75;2.42;;;17.70;44.70;;;;;;5050274;28;44614;-80
2021/12/03 03:44:54;;;;;;;3.75;2.45;;;17.70;44.70;;;;;;5049980;28;44850;-80
2021/12/03 03:47:23;;;;;;;4.68;2.50;;;17.70;44.80;;;;;;5050364;28;46714;-80
2021/12/03 03:49:49;;;;;;;3.95;1.98;;;17.70;45.00;;;;;;5050343;28;44800;-80
2021/12/03 03:52:16;;;;;;;4.35;2.30;;;17.70;44.80;;;;;;5049054;28;44657;-80
2021/12/03 03:54:44;;;;;;;5.47;2.58;;;17.70;44.80;;;;;;5050813;28;44738;-80
2021/12/03 03:57:11;;;;;;;4.63;2.55;;;17.70;44.70;;;;;;5044895;28;46349;-80
2021/12/03 03:59:37;;;;;;;2.78;2.08;;;17.70;44.80;;;;;;5049266;28;45026;-80
2021/12/03 04:02:05;;;;;;;4.32;2.38;;;17.70;44.70;;;;;;5050457;28;44738;-80
2021/12/03 04:04:33;;;;;;;3.35;2.38;;;17.70;44.60;;;;;;5051102;28;44680;-80
2021/12/03 04:07:00;;;;;;;4.43;2.55;;;17.70;45.00;;;;;;5048948;28;47065;-80
2021/12/03 04:09:27;;;;;;;5.15;2.47;;;17.70;44.60;;;;;;5050010;28;44781;-80
2021/12/03 04:11:54;;;;;;;4.38;2.70;;;17.70;44.40;;;;;;5046363;28;44739;-80
2021/12/03 04:14:21;;;;;;;4.90;2.72;;;17.70;44.40;;;;;;5050378;28;44751;-80
2021/12/03 04:16:48;;;;;;;5.38;3.28;;;17.70;44.40;;;;;;5049515;28;47379;-80
2021/12/03 04:19:15;;;;;;;6.60;2.65;;;17.70;44.40;;;;;;5048038;28;44719;-80
2021/12/03 04:21:43;;;;;;;4.25;2.70;;;17.70;44.40;;;;;;5048535;28;44682;-80
2021/12/03 04:24:10;;;;;;;4.15;2.65;;;17.70;44.30;;;;;;5049733;28;44747;-80
2021/12/03 04:26:37;;;;;;;4.97;2.85;;;17.70;44.40;;;;;;5050024;28;45417;-79
2021/12/03 04:29:04;;;;;;;4.65;2.92;;;17.70;44.30;;;;;;5048907;28;45284;-80
2021/12/03 04:31:31;;;;;;;5.38;2.60;;;17.70;44.40;;;;;;5048840;28;44886;-80
2021/12/03 04:33:57;;;;;;;5.75;2.70;;;17.70;44.40;;;;;;5049499;28;44894;-79
2021/12/03 04:36:25;;;;;;;6.15;2.60;;;17.60;44.50;;;;;;5047694;28;46614;-80
2021/12/03 04:38:53;;;;;;;3.80;2.40;;;17.60;44.40;;;;;;5044471;28;44672;-79
2021/12/03 04:41:20;;;;;;;3.63;2.53;;;17.60;44.60;;;;;;5030493;28;44662;-80
2021/12/03 04:43:47;;;;;;;6.55;3.33;;;17.70;44.90;;;;;;5045802;28;44898;-80
2021/12/03 04:46:14;;;;;;;5.07;2.35;;;17.70;44.70;;;;;;5048399;28;45255;-80
2021/12/03 04:48:40;;;;;;;4.80;2.90;;;17.70;44.70;;;;;;5049237;28;44612;-79
2021/12/03 04:51:07;;;;;;;5.13;2.90;;;17.70;44.60;;;;;;5050051;28;44642;-80
2021/12/03 04:53:34;;;;;;;5.25;3.13;;;17.60;44.70;;;;;;5053609;28;44707;-80
2021/12/03 04:56:03;;;;;;;4.95;2.90;;;17.70;44.50;;;;;;5053220;28;46323;-80
2021/12/03 04:58:30;;;;;;;5.95;3.10;;;17.70;44.70;;;;;;5053266;28;44794;-80
2021/12/03 05:00:58;;;;;;;4.88;2.80;;;17.60;44.50;;;;;;5053130;28;44686;-79
2021/12/03 05:03:25;;;;;;;4.50;2.80;;;17.60;44.50;;;;;;5051335;28;45935;-77
2021/12/03 05:05:54;;;;;;;4.70;3.20;;;17.60;45.00;;;;;;5045322;28;46852;-77
2021/12/03 05:08:22;;;;;;;4.78;2.67;;;17.60;44.90;;;;;;5052138;28;44736;-77
2021/12/03 05:10:49;;;;;;;5.85;3.13;;;17.60;44.90;;;;;;5052136;28;44711;-78
2021/12/03 05:13:20;;;;;;;5.72;3.20;;;17.60;44.70;;;;;;5052802;28;44878;-78
2021/12/03 05:15:48;;;;;;;5.32;2.90;;;17.60;44.80;;;;;;5059658;22;45266;-77
2021/12/03 05:18:17;;;;;;;4.50;2.78;;;17.50;44.90;;;;;;5037170;28;46436;-78
2021/12/03 05:20:45;;;;;;;5.15;2.90;;;17.50;44.80;;;;;;5045465;28;46494;-78
2021/12/03 05:23:13;;;;;;;3.90;2.40;;;17.50;45.10;;;;;;5033286;28;45225;-78
2021/12/03 05:25:41;;;;;;;3.33;2.30;;;17.50;45.40;;;;;;5041004;28;45611;-78
2021/12/03 05:28:10;;;;;;;3.20;2.38;;;17.50;45.20;;;;;;5044215;28;45363;-78
2021/12/03 05:30:39;;;;;;;4.40;3.00;;;17.50;45.20;;;;;;5046499;28;45327;-78
2021/12/03 05:33:09;;;;;;;5.60;3.47;;;17.60;45.40;;;;;;5039211;28;45581;-78
2021/12/03 05:35:39;;;;;;;4.72;2.95;;;17.50;45.00;;;;;;5022371;28;46326;-78
2021/12/03 05:38:09;;;;;;;6.32;3.47;;;17.50;44.90;;;;;;5045114;28;45453;-78
2021/12/03 05:40:37;;;;;;;4.72;3.15;;;17.50;45.00;;;;;;5039594;28;45304;-78
2021/12/03 05:43:05;;;;;;;7.10;3.33;;;17.60;44.90;;;;;;5045299;28;45326;-78
2021/12/03 05:45:44;;;;;;;6.43;3.40;;;17.50;44.90;;;;;;5046025;28;47067;-78
2021/12/03 05:48:17;;;;;;;5.80;3.10;;;17.50;44.90;;;;;;5050512;28;45351;-79
2021/12/03 05:50:51;;;;;;;6.32;3.33;;;17.50;45.00;;;;;;5032381;28;45545;-78
2021/12/03 05:53:19;;;;;;;6.60;2.83;;;17.50;45.00;;;;;;5040695;28;45534;-78
2021/12/03 05:55:47;;;;;;;6.03;3.28;;;17.50;45.00;;;;;;5039581;28;47297;-78
2021/12/03 05:58:16;;;;;;;6.57;3.65;;;17.50;45.00;;;;;;5042432;28;45501;-78
2021/12/03 06:00:44;;;;;;;4.57;2.80;;;17.50;44.90;;;;;;5032048;28;45320;-78
2021/12/03 06:03:13;;;;;;;4.80;2.70;;;17.50;45.70;;;;;;5032790;28;45135;-78
2021/12/03 06:05:40;;;;;;;5.90;2.85;;;17.60;47.40;;;;;;5038035;28;47379;-78
2021/12/03 06:08:10;;;;;;;4.40;2.85;;;17.60;46.60;;;;;;5039339;28;45350;-77
2021/12/03 06:10:39;;;;;;;5.00;3.05;;;17.60;46.60;;;;;;5038465;28;45218;-77
2021/12/03 06:13:06;;;;;;;5.68;2.72;;;17.60;46.30;;;;;;5040862;28;45227;-77
2021/12/03 06:15:35;;;;;;;4.75;2.40;;;17.60;46.20;;;;;;5044600;28;48420;-78
2021/12/03 06:18:03;;;;;;;7.43;3.25;;;17.60;46.40;;;;;;5044546;28;45526;-80
2021/12/03 06:20:32;;;;;;;3.50;2.17;;;17.60;46.30;;;;;;5035707;28;45434;-77
2021/12/03 06:22:59;;;;;;;4.63;2.25;;;17.60;46.80;;;;;;5044945;28;45345;-77
2021/12/03 06:25:26;;;;;;;4.45;2.17;;;17.60;47.00;;;;;;5012005;28;46300;-80
2021/12/03 06:27:57;;;;;;;4.13;2.25;;;17.60;47.20;;;;;;5029479;28;46252;-77
2021/12/03 06:30:26;;;;;;;2.70;2.13;;;17.70;47.30;;;;;;5029703;28;45417;-78
2021/12/03 06:32:57;;;;;;;5.13;2.22;;;17.70;46.70;;;;;;5051147;28;45085;-78
2021/12/03 06:35:26;;;;;;;4.47;2.15;;;17.70;46.60;;;;;;5040168;28;47051;-78
2021/12/03 06:38:01;;;;;;;4.20;2.28;;;17.70;46.30;;;;;;5040135;28;46241;-79
2021/12/03 06:40:29;;;;;;;4.88;2.50;;;17.70;46.00;;;;;;5048708;28;45207;-79
2021/12/03 06:42:57;;;;;;;4.88;2.30;;;17.70;46.00;;;;;;5035592;28;45444;-79
2021/12/03 06:45:25;;;;;;;3.03;1.88;;;17.70;46.20;;;;;;5047018;28;47842;-79
2021/12/03 06:47:53;;;;;;;3.13;1.77;;;17.70;46.90;;;;;;5041767;28;45193;-79
2021/12/03 06:50:24;;;;;;;3.45;1.80;;;17.70;46.90;;;;;;5031136;28;45284;-79
2021/12/03 06:53:06;;;;;;;2.53;1.70;;;17.70;47.20;;;;;;5034604;28;45806;-80
2021/12/03 06:55:45;;;;;;;3.17;1.73;;;17.70;47.50;;;;;;5029901;28;45350;-80
2021/12/03 06:58:15;;;;;;;3.65;2.05;;;17.70;47.50;;;;;;5029696;28;45154;-80
2021/12/03 07:00:43;;;;;;;5.30;1.80;;;17.70;47.70;;;;;;5028478;28;45237;-80
2021/12/03 07:03:11;;;;;;;4.05;1.67;;;17.70;47.70;;;;;;5028904;28;45574;-80
2021/12/03 07:05:41;;;;;;;6.30;1.90;;;17.70;47.40;;;;;;5031516;28;47642;-80
2021/12/03 07:08:09;;;;;;;3.80;1.75;;;17.70;47.50;;;;;;5048886;28;45396;-80
2021/12/03 07:10:40;;;;;;;3.20;1.80;;;17.70;47.70;;;;;;5045661;28;45203;-81
2021/12/03 07:13:08;;;;;;;2.42;1.35;;;17.70;47.70;;;;;;5028840;28;45336;-80
2021/12/03 07:15:38;;;;;;;3.05;1.30;;;17.90;47.70;;;;;;5029035;28;47933;-80
2021/12/03 07:18:07;;;;;;;3.58;1.30;;;17.70;47.70;;;;;;5036927;28;45305;-80
2021/12/03 07:20:34;;;;;;;3.08;1.27;;;17.70;48.00;;;;;;5049442;28;45317;-80
2021/12/03 07:23:02;;;;;;;6.10;1.63;;;17.80;48.30;;;;;;5045105;28;45395;-80
2021/12/03 07:25:31;;;;;;;4.18;1.70;;;17.80;48.10;;;;;;5048806;28;47582;-79
2021/12/03 07:28:04;;;;;;;3.75;1.58;;;17.80;47.70;;;;;;5014050;28;45506;-79
2021/12/03 07:30:33;;;;;;;4.13;1.70;;;17.80;47.20;;;;;;5036548;28;45420;-79
2021/12/03 07:33:01;;;;;;;3.90;1.60;;;17.70;46.80;;;;;;5043807;28;45687;-75
2021/12/03 07:35:28;;;;;;;3.40;1.38;;;17.70;47.50;;;;;;5040571;28;47376;-76
2021/12/03 07:37:55;;;;;;;4.55;1.92;;;17.70;47.50;;;;;;5033478;28;45498;-76
2021/12/03 07:40:22;;;;;;;4.03;1.60;;;17.70;46.70;;;;;;5034596;28;46471;-76
2021/12/03 07:42:49;;;;;;;4.63;2.03;;;17.70;46.30;;;;;;5040052;28;45898;-76
2021/12/03 07:45:18;;;;;;;2.78;1.52;;;17.70;46.70;;;;;;5045513;28;45515;-76
2021/12/03 07:47:45;;;;;;;4.55;1.75;;;17.70;46.20;;;;;;5040656;28;45538;-76
2021/12/03 07:50:13;;;;;;;3.75;1.45;;;17.70;46.40;;;;;;5042853;28;45333;-76
2021/12/03 07:52:40;;;;;;;4.15;1.65;;;17.70;46.40;;;;;;5038595;28;45398;-76
2021/12/03 07:55:08;;;;;;;3.42;1.50;;;17.70;46.20;;;;;;5034279;28;47462;-76
2021/12/03 07:57:36;;;;;;;2.50;1.40;;;17.70;45.90;;;;;;5044107;28;45304;-76
2021/12/03 08:00:05;;;;;;;2.10;1.25;;;17.70;45.90;;;;;;5042756;28;45295;-77
2021/12/03 08:02:33;;;;;;;2.72;1.48;;;17.60;45.70;;;;;;5045840;28;45274;-76
2021/12/03 08:05:01;;;;;;;3.47;1.42;;;17.60;45.70;;;;;;5020127;28;45794;-77
2021/12/03 08:07:28;;;;;;;4.35;1.30;;;17.60;45.30;;;;;;5046540;28;46154;-77
2021/12/03 08:09:56;;;;;;;2.65;1.30;;;17.60;45.70;;;;;;5045490;28;45351;-77
2021/12/03 08:12:23;;;;;;;4.15;1.48;;;17.70;46.10;;;;;;5036931;28;45158;-77
2021/12/03 08:14:50;;;;;;;5.60;1.40;;;17.70;46.00;;;;;;5040143;28;47648;-77
2021/12/03 08:17:17;;;;;;;4.47;1.90;;;17.70;46.10;;;;;;5028607;28;45329;-77
2021/12/03 08:19:46;;;;;;;3.63;1.38;;;17.70;45.00;;;;;;5030930;28;45378;-77
2021/12/03 08:22:13;;;;;;;2.28;1.30;;;17.70;45.20;;;;;;5035555;28;45624;-77
2021/12/03 08:24:42;;;;;;;3.33;1.50;;;17.70;45.50;;;;;;5050299;28;47098;-77
2021/12/03 08:27:12;;;;;;;4.38;1.27;;;17.70;45.40;;;;;;5050800;28;45265;-77
2021/12/03 08:29:39;;;;;;;5.13;1.65;;;17.70;45.20;;;;;;5046423;28;45410;-77
2021/12/03 08:32:07;;;;;;;3.42;1.70;;;17.70;45.00;;;;;;5043067;28;45276;-77
2021/12/03 08:34:34;;;;;;;3.88;1.40;;;17.70;44.80;;;;;;5048919;28;48101;-77
2021/12/03 08:37:03;;;;;;;2.97;1.20;;;17.70;44.60;;;;;;5043993;28;45695;-77
2021/12/03 08:39:30;;;;;;;5.70;1.48;;;17.70;44.70;;;;;;5047103;28;45126;-76
2021/12/03 08:41:58;;;;;;;6.35;1.30;;;17.70;44.60;;;;;;5037873;28;45439;-77
2021/12/03 08:44:25;;;;;;;4.10;1.45;;;17.70;44.60;;;;;;5044390;28;46759;-77
2021/12/03 08:46:57;;;;;;;3.55;1.50;;;17.70;44.80;;;;;;5050270;28;45549;-77
2021/12/03 08:49:29;;;;;;;3.97;1.13;;;17.70;44.50;;;;;;5050085;28;45236;-77
2021/12/03 08:52:22;;;;;;;3.97;1.63;;;17.70;44.60;;;;;;5051437;28;45530;-77
2021/12/03 08:54:53;;;;;;;3.88;1.27;;;17.70;44.30;;;;;;5051933;28;47158;-77
2021/12/03 08:57:22;;;;;;;2.75;1.15;;;17.70;45.50;;;;;;5051412;28;45252;-77
2021/12/03 08:59:52;;;;;;;3.97;1.45;;;17.70;44.50;;;;;;5031105;28;45309;-77
2021/12/03 09:02:19;;;;;;;3.97;1.40;;;17.60;44.10;;;;;;5031343;28;45364;-77
2021/12/03 09:04:47;;;;;;;3.40;1.50;;;17.70;44.40;;;;;;5031497;28;47250;-77
2021/12/03 09:07:14;;;;;;;4.82;1.70;;;17.70;44.40;;;;;;5030441;28;45519;-77
2021/12/03 09:09:41;;;;;;;5.43;1.67;;;17.70;45.00;;;;;;5030166;28;45258;-77
2021/12/03 09:12:10;;;;;;;3.25;1.40;;;17.70;44.60;;;;;;5031144;28;45188;-77
2021/12/03 09:14:40;;;;;;;3.50;1.20;;;17.70;45.00;;;;;;5031161;28;47696;-76
2021/12/03 09:20:05;;;;;;;3.25;1.30;;;17.70;44.60;;;;;;5019545;28;45447;-77
2021/12/03 09:22:38;;;;;;;4.57;1.67;;;17.70;44.70;;;;;;5036327;28;45345;-77
2021/12/03 09:25:07;;;;;;;3.78;1.70;;;17.70;44.30;;;;;;5031457;28;46677;-77
2021/12/03 09:27:36;;;;;;;2.75;1.30;;;17.70;44.40;;;;;;5030239;28;45190;-77
2021/12/03 09:30:05;;;;;;;3.75;1.48;;;17.70;44.60;;;;;;5029276;28;45424;-77
2021/12/03 09:32:33;;;;;;;3.40;1.20;;;17.70;44.30;;;;;;5030733;28;45510;-77
2021/12/03 09:35:03;;;;;;;3.67;1.30;;;17.70;44.50;;;;;;5037049;28;45456;-77
2021/12/03 09:37:30;;;;;;;3.50;1.10;;;17.70;44.40;;;;;;5039842;28;45787;-76
2021/12/03 09:40:04;;;;;;;3.08;1.30;;;17.70;44.30;;;;;;5030748;28;45213;-76
2021/12/03 09:42:34;;;;;;;2.47;1.10;;;17.70;44.00;;;;;;5050135;28;45577;-77
2021/12/03 09:45:05;;;;;;;3.90;1.40;;;17.70;44.00;;;;;;5050836;28;47179;-77
2021/12/03 09:47:33;;;;;;;2.70;1.17;;;17.70;44.10;;;;;;5050201;28;45638;-77
2021/12/03 09:50:03;;;;;;;3.85;1.45;;;17.70;44.00;;;;;;5050102;28;45240;-77
2021/12/03 09:52:35;;;;;;;3.35;1.10;;;17.70;44.10;;;;;;5046454;28;45371;-77
2021/12/03 09:55:08;;;;;;;2.55;1.25;;;17.70;43.90;;;;;;5030469;28;46431;-76
2021/12/03 09:57:38;;;;;;;3.88;1.27;;;17.70;44.00;;;;;;5030361;28;45279;-77
2021/12/03 10:00:27;;;;;;;1.88;1.00;;;17.60;44.20;;;;;;5030177;28;45257;-77
2021/12/03 10:03:03;;;;;;;3.83;1.38;;;17.70;44.00;;;;;;5049728;28;45123;-77
2021/12/03 10:14:03;;;;;;;2.42;1.20;;;17.70;44.40;;;;;;5035242;28;45519;-77
2021/12/03 10:16:47;;;;;;;4.43;1.45;;;17.70;44.40;;;;;;5041882;28;45600;-76
2021/12/03 10:19:27;;;;;;;3.42;1.27;;;17.70;44.50;;;;;;5040498;28;45606;-77
2021/12/03 10:22:25;;;;;;;3.53;1.40;;;17.70;44.20;;;;;;5029252;28;45293;-77
2021/12/03 10:25:17;;;;;;;2.67;1.10;;;17.70;44.80;;;;;;5028778;28;45697;-77
2021/12/03 10:28:07;;;;;;;3.83;1.23;;;17.70;44.40;;;;;;5011599;28;45679;-76
2021/12/03 10:33:47;;;;;;;2.47;1.20;;;17.70;44.40;;;;;;5032019;28;45329;-76
2021/12/03 10:39:17;;;;;;;2.30;1.23;;;17.70;44.40;;;;;;5027405;28;45371;-76
2021/12/03 10:41:56;;;;;;;2.50;1.17;;;17.70;44.40;;;;;;5033676;28;45633;-76
2021/12/03 10:44:43;;;;;;;3.67;1.23;;;17.70;44.30;;;;;;5037459;28;45376;-76
2021/12/03 10:47:30;;;;;;;2.72;1.10;;;17.70;44.20;;;;;;5045043;28;45266;-76
2021/12/03 10:50:12;;;;;;;2.30;1.00;;;17.70;44.40;;;;;;5040777;28;47457;-76
2021/12/03 10:52:57;;;;;;;4.57;1.35;;;17.70;44.00;;;;;;5028639;28;45517;-77
2021/12/03 10:58:43;;;;;;;3.03;1.05;;;17.70;44.30;;;;;;5007492;28;45412;-77
2021/12/03 11:07:27;;;;;;;1.75;0.90;;;17.70;44.10;;;;;;5043280;28;45592;-77
2021/12/03 11:13:00;;;;;;;3.05;1.10;;;17.70;44.10;;;;;;5044751;28;45779;-77
2021/12/03 11:38:21;;;;;;;4.43;1.20;;;17.70;44.70;;;;;;4979659;28;45311;-77
2021/12/03 13:10:49;;;;;;;2.13;0.80;;;17.90;43.10;;;;;;5028517;28;45212;-76
2021/12/03 13:13:45;;;;;;;1.08;0.80;;;17.80;43.10;;;;;;5030038;28;46581;-76
2021/12/03 13:25:16;;;;;;;2.17;0.68;;;17.70;43.30;;;;;;5021996;28;45191;-76
2021/12/03 14:09:51;;;;;;;1.73;0.60;;;17.80;42.80;;;;;;5038360;28;45356;-77
2021/12/03 14:37:55;;;;;;;0.93;0.63;;;17.70;42.80;;;;;;5029297;28;45327;-77
2021/12/03 14:48:55;;;;;;;0.90;0.55;;;17.70;43.70;;;;;;5033236;28;45434;-77
2021/12/03 14:51:42;;;;;;;1.40;0.63;;;17.70;43.00;;;;;;5048858;28;45402;-77
2021/12/03 14:54:32;;;;;;;1.15;0.50;;;17.70;43.20;;;;;;5048943;28;45174;-77
2021/12/03 14:57:27;;;;;;;0.50;0.40;;;17.70;43.30;;;;;;5036798;28;45157;-77
2021/12/03 15:00:08;;;;;;;1.40;0.60;;;17.80;43.60;;;;;;5048835;28;45374;-77
2021/12/03 15:05:52;;;;;;;0.82;0.60;;;17.70;43.20;;;;;;5043074;28;45260;-77
2021/12/03 15:08:22;;;;;;;2.75;0.60;;;17.70;43.40;;;;;;5039500;28;45287;-77
2021/12/03 15:11:39;;;;;;;1.52;0.52;;;17.70;43.40;;;;;;5048955;28;47781;-77
2021/12/03 15:19:57;;;;;;;1.58;0.52;;;17.70;44.50;;;;;;5040893;28;45265;-77
2021/12/03 15:22:49;;;;;;;1.75;0.57;;;17.70;43.40;;;;;;5044375;28;46883;-77
2021/12/03 15:25:24;;;;;;;1.52;0.60;;;17.70;43.60;;;;;;5047669;28;45234;-77
2021/12/03 15:28:07;;;;;;;2.05;0.70;;;17.70;43.10;;;;;;5044367;28;45261;-77
2021/12/03 15:30:45;;;;;;;0.80;0.30;;;17.70;43.40;;;;;;5033787;28;45233;-77
2021/12/03 15:33:20;;;;;;;1.13;0.50;;;17.70;43.40;;;;;;5041840;28;48741;-77
2021/12/03 15:35:57;;;;;;;1.05;0.63;;;17.70;43.50;;;;;;5047471;28;45117;-77
2021/12/03 15:55:15;;;;;;;3.10;0.82;;;17.80;44.60;;;;;;5041528;28;45756;-77
2021/12/03 16:06:17;;;;;;;1.80;1.10;;;17.70;43.40;;;;;;5040091;28;45422;-77
2021/12/03 16:08:47;;;;;;;1.25;0.47;;;17.70;43.80;;;;;;5048019;28;45714;-77
2021/12/03 16:11:23;;;;;;;1.85;0.50;;;17.70;43.70;;;;;;5029738;28;45193;-77
2021/12/03 16:13:59;;;;;;;1.13;0.43;;;17.70;43.20;;;;;;5033084;28;45403;-77
2021/12/03 16:16:56;;;;;;;0.60;0.52;;;17.70;43.40;;;;;;5031719;28;47365;-77
2021/12/03 16:19:39;;;;;;;0.82;0.60;;;17.70;43.60;;;;;;5039516;28;45428;-77
2021/12/03 16:22:25;;;;;;;1.45;0.70;;;17.70;43.50;;;;;;5034985;28;45324;-77
2021/12/03 16:44:31;;;;;;;1.23;0.60;;;17.70;44.00;;;;;;5036271;28;45328;-76
2021/12/03 16:47:07;;;;;;;1.05;0.40;;;17.70;44.10;;;;;;5051035;28;45150;-76
2021/12/03 16:52:22;;;;;;;1.05;0.60;;;17.70;43.70;;;;;;5028895;28;45119;-76
2021/12/03 16:54:53;;;;;;;1.10;0.65;;;17.70;43.60;;;;;;5048358;28;45363;-77
2021/12/03 16:57:27;;;;;;;0.80;0.55;;;17.70;43.90;;;;;;5047017;28;46673;-77
2021/12/03 16:59:56;;;;;;;1.38;0.52;;;17.70;43.70;;;;;;5037733;28;46225;-76
2021/12/03 17:02:29;;;;;;;1.02;0.47;;;17.70;43.80;;;;;;5033170;28;45532;-76
2021/12/03 17:05:15;;;;;;;1.35;0.70;;;17.70;43.70;;;;;;5030593;28;45683;-76
2021/12/03 17:08:19;;;;;;;0.50;0.40;;;17.70;43.70;;;;;;5040301;28;45284;-76
2021/12/03 17:13:45;;;;;;;0.60;0.55;;;17.70;43.90;;;;;;5019357;28;45236;-76
2021/12/03 17:30:58;;;;;;;1.00;0.60;;;17.70;44.30;;;;;;5146548;27;45243;-75
2021/12/03 17:45:00;;;;;;;0.90;0.50;;;17.70;44.40;;;;;;5136531;27;45647;-76
2021/12/03 17:47:45;;;;;;;0.40;0.40;;;17.80;44.30;;;;;;5135210;27;45288;-76
2021/12/03 17:50:25;;;;;;;1.05;0.57;;;17.70;44.40;;;;;;5146429;27;45213;-76
2021/12/03 17:53:20;;;;;;;1.58;0.50;;;17.70;44.50;;;;;;5134302;27;45474;-74
2021/12/03 17:58:43;;;;;;;1.95;0.60;;;17.80;46.60;;;;;;5093468;27;45325;-78
2021/12/03 18:01:17;;;;;;;2.03;0.60;;;17.80;48.50;;;;;;5143401;27;45511;-77
2021/12/03 18:04:00;;;;;;;2.40;0.57;;;17.80;48.60;;;;;;5133280;27;45256;-76
2021/12/03 18:12:23;;;;;;;0.43;0.43;;;17.70;49.90;;;;;;5144588;27;45172;-76
2021/12/03 18:15:29;;;;;;;1.38;0.55;;;17.70;51.00;;;;;;5145706;27;45216;-76
2021/12/03 18:18:25;;;;;;;0.80;0.57;;;17.60;51.10;;;;;;5144370;27;45472;-76
2021/12/03 18:46:06;;;;;;;0.95;0.40;;;17.60;54.60;;;;;;5129644;27;45242;-77
2021/12/03 18:48:56;;;;;;;1.17;0.70;;;17.60;55.90;;;;;;5126668;27;45510;-77
2021/12/03 18:51:29;;;;;;;0.85;0.32;;;17.60;56.60;;;;;;5125451;27;47254;-76
2021/12/03 18:54:12;;;;;;;0.50;0.50;;;17.60;54.60;;;;;;5131540;27;45155;-76